Terminal Aerodrome Forecast
Issued by NWS

Home | Current Version | Previous Version | Text Only | Print | Product List | Glossary On
Versions: 1 2 3 4 5 6 7 8 9 10 11 12 13 14 15 16 17 18 19 20 21 22 23 24 25 26 27 28 29 30 31 32 33 34 35 36 37 38 39 40
000
FTAK31 PANC 242331
TAFATK
TAF
PATK 242331Z 2500/2524 03008KT 4SM -SN SCT015 OVC035
      TEMPO 2500/2503 1SM -SN BR BKN015
     FM250300 03006KT 1 1/2SM -SN SCT015 OVC025
     FM250500 VRB03KT 2SM -SN BR OVC015
     FM250900 VRB03KT 5SM -SN BR SCT015 OVC020
     FM252000 VRB03KT 3/4SM -SN BR OVC010=

USA.gov is the U.S. government's official web portal to all federal, state and local government web resources and services.